sensor_id;sensor_type;location;lat;lon;timestamp;temperature;humidity
64718;DHT22;62506;46.070;14.492;2023-10-13T00:01:05;23.60;70.20
64718;DHT22;62506;46.070;14.492;2023-10-13T00:03:32;23.50;70.20
64718;DHT22;62506;46.070;14.492;2023-10-13T00:05:58;23.50;70.30
64718;DHT22;62506;46.070;14.492;2023-10-13T00:08:29;23.50;70.30
64718;DHT22;62506;46.070;14.492;2023-10-13T00:10:54;23.50;70.40
64718;DHT22;62506;46.070;14.492;2023-10-13T00:13:28;23.50;70.50
64718;DHT22;62506;46.070;14.492;2023-10-13T00:15:57;23.50;70.50
64718;DHT22;62506;46.070;14.492;2023-10-13T00:18:23;23.50;70.60
64718;DHT22;62506;46.070;14.492;2023-10-13T00:20:51;23.50;70.60
64718;DHT22;62506;46.070;14.492;2023-10-13T00:23:17;23.50;70.70
64718;DHT22;62506;46.070;14.492;2023-10-13T00:25:47;23.50;70.70
64718;DHT22;62506;46.070;14.492;2023-10-13T00:28:25;23.50;70.80
64718;DHT22;62506;46.070;14.492;2023-10-13T00:30:52;23.40;70.70
64718;DHT22;62506;46.070;14.492;2023-10-13T00:33:24;23.40;70.90
64718;DHT22;62506;46.070;14.492;2023-10-13T00:35:51;23.40;70.80
64718;DHT22;62506;46.070;14.492;2023-10-13T00:38:19;23.50;70.90
64718;DHT22;62506;46.070;14.492;2023-10-13T00:40:45;23.40;70.90
64718;DHT22;62506;46.070;14.492;2023-10-13T00:43:17;23.40;70.80
64718;DHT22;62506;46.070;14.492;2023-10-13T00:45:52;23.40;70.80
64718;DHT22;62506;46.070;14.492;2023-10-13T00:48:32;23.50;71.00
64718;DHT22;62506;46.070;14.492;2023-10-13T00:50:59;23.40;70.80
64718;DHT22;62506;46.070;14.492;2023-10-13T00:53:28;23.40;70.80
64718;DHT22;62506;46.070;14.492;2023-10-13T00:55:54;23.40;70.70
64718;DHT22;62506;46.070;14.492;2023-10-13T00:58:23;23.50;70.70
64718;DHT22;62506;46.070;14.492;2023-10-13T01:00:50;23.50;70.70
64718;DHT22;62506;46.070;14.492;2023-10-13T01:03:22;23.50;70.70
64718;DHT22;62506;46.070;14.492;2023-10-13T01:05:53;23.50;70.70
64718;DHT22;62506;46.070;14.492;2023-10-13T01:08:30;23.50;70.60
64718;DHT22;62506;46.070;14.492;2023-10-13T01:10:59;23.50;70.60
64718;DHT22;62506;46.070;14.492;2023-10-13T01:13:25;23.50;70.50
64718;DHT22;62506;46.070;14.492;2023-10-13T01:15:52;23.50;71.40
64718;DHT22;62506;46.070;14.492;2023-10-13T01:18:18;23.50;70.40
64718;DHT22;62506;46.070;14.492;2023-10-13T01:20:43;23.50;70.40
64718;DHT22;62506;46.070;14.492;2023-10-13T01:23:11;23.50;71.20
64718;DHT22;62506;46.070;14.492;2023-10-13T01:25:43;23.50;70.50
64718;DHT22;62506;46.070;14.492;2023-10-13T01:28:09;23.50;70.50
64718;DHT22;62506;46.070;14.492;2023-10-13T01:30:35;23.50;70.60
64718;DHT22;62506;46.070;14.492;2023-10-13T01:33:03;23.40;70.60
64718;DHT22;62506;46.070;14.492;2023-10-13T01:35:29;23.40;70.60
64718;DHT22;62506;46.070;14.492;2023-10-13T01:38:01;23.40;70.70
64718;DHT22;62506;46.070;14.492;2023-10-13T01:40:27;23.40;70.70
64718;DHT22;62506;46.070;14.492;2023-10-13T01:42:58;23.40;70.70
64718;DHT22;62506;46.070;14.492;2023-10-13T01:45:24;23.40;70.70
64718;DHT22;62506;46.070;14.492;2023-10-13T01:47:57;23.40;70.70
64718;DHT22;62506;46.070;14.492;2023-10-13T01:50:22;23.40;70.70
64718;DHT22;62506;46.070;14.492;2023-10-13T01:52:54;23.40;71.70
64718;DHT22;62506;46.070;14.492;2023-10-13T01:55:37;23.40;70.70
64718;DHT22;62506;46.070;14.492;2023-10-13T01:58:04;23.40;71.70
64718;DHT22;62506;46.070;14.492;2023-10-13T02:00:39;23.40;70.80
64718;DHT22;62506;46.070;14.492;2023-10-13T02:03:10;23.40;70.80
64718;DHT22;62506;46.070;14.492;2023-10-13T02:05:42;23.40;70.90
64718;DHT22;62506;46.070;14.492;2023-10-13T02:08:12;23.40;71.00
64718;DHT22;62506;46.070;14.492;2023-10-13T02:10:43;23.40;71.00
64718;DHT22;62506;46.070;14.492;2023-10-13T02:13:12;23.40;71.00
64718;DHT22;62506;46.070;14.492;2023-10-13T02:15:40;23.40;70.80
64718;DHT22;62506;46.070;14.492;2023-10-13T02:18:08;23.40;70.70
64718;DHT22;62506;46.070;14.492;2023-10-13T02:20:34;23.40;70.70
64718;DHT22;62506;46.070;14.492;2023-10-13T02:23:07;23.40;70.60
64718;DHT22;62506;46.070;14.492;2023-10-13T02:25:36;23.50;70.70
64718;DHT22;62506;46.070;14.492;2023-10-13T02:28:08;23.50;70.60
64718;DHT22;62506;46.070;14.492;2023-10-13T02:30:38;23.50;70.50
64718;DHT22;62506;46.070;14.492;2023-10-13T02:33:03;23.50;70.50
64718;DHT22;62506;46.070;14.492;2023-10-13T02:35:31;23.50;70.50
64718;DHT22;62506;46.070;14.492;2023-10-13T02:38:07;23.50;70.50
64718;DHT22;62506;46.070;14.492;2023-10-13T02:40:36;23.50;70.40
64718;DHT22;62506;46.070;14.492;2023-10-13T02:43:01;23.50;70.40
64718;DHT22;62506;46.070;14.492;2023-10-13T02:45:27;23.50;70.50
64718;DHT22;62506;46.070;14.492;2023-10-13T02:47:52;23.50;70.40
64718;DHT22;62506;46.070;14.492;2023-10-13T02:50:35;23.50;70.50
64718;DHT22;62506;46.070;14.492;2023-10-13T02:53:04;23.50;70.40
64718;DHT22;62506;46.070;14.492;2023-10-13T02:55:38;23.50;70.50
64718;DHT22;62506;46.070;14.492;2023-10-13T02:58:04;23.60;70.50
64718;DHT22;62506;46.070;14.492;2023-10-13T03:00:30;23.50;70.40
64718;DHT22;62506;46.070;14.492;2023-10-13T03:02:57;23.50;70.40
64718;DHT22;62506;46.070;14.492;2023-10-13T03:05:26;23.50;70.40
64718;DHT22;62506;46.070;14.492;2023-10-13T03:07:55;23.50;70.40
64718;DHT22;62506;46.070;14.492;2023-10-13T03:10:20;23.50;70.50
64718;DHT22;62506;46.070;14.492;2023-10-13T03:12:46;23.50;70.80
64718;DHT22;62506;46.070;14.492;2023-10-13T03:15:13;23.50;70.90
64718;DHT22;62506;46.070;14.492;2023-10-13T03:17:43;23.60;71.00
64718;DHT22;62506;46.070;14.492;2023-10-13T03:20:18;23.50;71.10
64718;DHT22;62506;46.070;14.492;2023-10-13T03:22:48;23.50;71.00
64718;DHT22;62506;46.070;14.492;2023-10-13T03:25:17;23.50;71.10
64718;DHT22;62506;46.070;14.492;2023-10-13T03:27:49;23.50;71.00
64718;DHT22;62506;46.070;14.492;2023-10-13T03:30:17;23.50;71.00
64718;DHT22;62506;46.070;14.492;2023-10-13T03:32:43;23.60;71.00
64718;DHT22;62506;46.070;14.492;2023-10-13T03:35:10;23.60;71.10
64718;DHT22;62506;46.070;14.492;2023-10-13T03:37:42;23.60;71.00
64718;DHT22;62506;46.070;14.492;2023-10-13T03:40:11;23.60;71.00
64718;DHT22;62506;46.070;14.492;2023-10-13T03:42:50;23.50;70.90
64718;DHT22;62506;46.070;14.492;2023-10-13T03:45:39;23.60;71.00
64718;DHT22;62506;46.070;14.492;2023-10-13T03:48:05;23.50;71.00
64718;DHT22;62506;46.070;14.492;2023-10-13T03:50:38;23.50;71.00
64718;DHT22;62506;46.070;14.492;2023-10-13T03:53:13;23.50;71.10
64718;DHT22;62506;46.070;14.492;2023-10-13T03:55:39;23.50;71.10
64718;DHT22;62506;46.070;14.492;2023-10-13T03:58:05;23.50;71.20
64718;DHT22;62506;46.070;14.492;2023-10-13T04:00:32;23.50;71.30
64718;DHT22;62506;46.070;14.492;2023-10-13T04:02:58;23.40;71.20
64718;DHT22;62506;46.070;14.492;2023-10-13T04:05:34;23.40;71.20
64718;DHT22;62506;46.070;14.492;2023-10-13T04:08:20;23.50;71.50
64718;DHT22;62506;46.070;14.492;2023-10-13T04:10:52;23.50;71.20
64718;DHT22;62506;46.070;14.492;2023-10-13T04:13:18;23.50;71.50
64718;DHT22;62506;46.070;14.492;2023-10-13T04:16:03;23.50;71.80
64718;DHT22;62506;46.070;14.492;2023-10-13T04:18:47;23.50;71.90
64718;DHT22;62506;46.070;14.492;2023-10-13T04:21:29;23.50;72.30
64718;DHT22;62506;46.070;14.492;2023-10-13T04:24:04;23.50;72.70
64718;DHT22;62506;46.070;14.492;2023-10-13T04:26:48;23.50;72.80
64718;DHT22;62506;46.070;14.492;2023-10-13T04:29:33;23.50;73.40
64718;DHT22;62506;46.070;14.492;2023-10-13T04:32:14;23.50;73.20
64718;DHT22;62506;46.070;14.492;2023-10-13T04:34:41;23.50;72.90
64718;DHT22;62506;46.070;14.492;2023-10-13T04:37:11;23.50;72.50
64718;DHT22;62506;46.070;14.492;2023-10-13T04:39:57;23.50;72.50
64718;DHT22;62506;46.070;14.492;2023-10-13T04:42:35;23.50;72.10
64718;DHT22;62506;46.070;14.492;2023-10-13T04:45:19;23.50;71.90
64718;DHT22;62506;46.070;14.492;2023-10-13T04:48:00;23.50;72.00
64718;DHT22;62506;46.070;14.492;2023-10-13T04:50:41;23.50;71.30
64718;DHT22;62506;46.070;14.492;2023-10-13T04:53:17;23.60;72.10
64718;DHT22;62506;46.070;14.492;2023-10-13T04:55:55;23.60;72.00
64718;DHT22;62506;46.070;14.492;2023-10-13T04:58:27;23.60;71.70
64718;DHT22;62506;46.070;14.492;2023-10-13T05:00:58;23.60;71.70
64718;DHT22;62506;46.070;14.492;2023-10-13T05:03:42;23.60;71.80
64718;DHT22;62506;46.070;14.492;2023-10-13T05:06:27;23.60;71.90
64718;DHT22;62506;46.070;14.492;2023-10-13T05:09:11;23.60;71.30
64718;DHT22;62506;46.070;14.492;2023-10-13T05:11:55;23.60;71.20
64718;DHT22;62506;46.070;14.492;2023-10-13T05:14:39;23.60;71.20
64718;DHT22;62506;46.070;14.492;2023-10-13T05:17:23;23.60;71.50
64718;DHT22;62506;46.070;14.492;2023-10-13T05:20:08;23.60;71.50
64718;DHT22;62506;46.070;14.492;2023-10-13T05:22:52;23.50;71.50
64718;DHT22;62506;46.070;14.492;2023-10-13T05:25:36;23.50;71.50
64718;DHT22;62506;46.070;14.492;2023-10-13T05:28:21;23.50;71.50
64718;DHT22;62506;46.070;14.492;2023-10-13T05:31:06;23.50;71.50
64718;DHT22;62506;46.070;14.492;2023-10-13T05:33:50;23.50;71.50
64718;DHT22;62506;46.070;14.492;2023-10-13T05:36:34;23.50;71.50
64718;DHT22;62506;46.070;14.492;2023-10-13T05:39:18;23.50;71.20
64718;DHT22;62506;46.070;14.492;2023-10-13T05:42:02;23.50;71.20
64718;DHT22;62506;46.070;14.492;2023-10-13T05:44:46;23.60;71.20
64718;DHT22;62506;46.070;14.492;2023-10-13T05:47:33;23.60;71.00
64718;DHT22;62506;46.070;14.492;2023-10-13T05:50:11;23.60;70.90
64718;DHT22;62506;46.070;14.492;2023-10-13T05:52:49;23.60;70.70
64718;DHT22;62506;46.070;14.492;2023-10-13T05:55:44;23.60;71.00
64718;DHT22;62506;46.070;14.492;2023-10-13T05:58:48;23.60;70.70
64718;DHT22;62506;46.070;14.492;2023-10-13T06:01:52;23.70;70.50
64718;DHT22;62506;46.070;14.492;2023-10-13T06:04:38;23.70;70.70
64718;DHT22;62506;46.070;14.492;2023-10-13T06:07:42;23.70;70.50
64718;DHT22;62506;46.070;14.492;2023-10-13T06:10:47;23.70;70.40
64718;DHT22;62506;46.070;14.492;2023-10-13T06:13:50;23.70;70.30
64718;DHT22;62506;46.070;14.492;2023-10-13T06:16:35;23.80;70.20
64718;DHT22;62506;46.070;14.492;2023-10-13T06:19:19;23.80;70.00
64718;DHT22;62506;46.070;14.492;2023-10-13T06:22:03;23.80;70.10
64718;DHT22;62506;46.070;14.492;2023-10-13T06:24:47;23.80;70.00
64718;DHT22;62506;46.070;14.492;2023-10-13T06:27:32;23.80;69.80
64718;DHT22;62506;46.070;14.492;2023-10-13T06:30:16;23.80;69.60
64718;DHT22;62506;46.070;14.492;2023-10-13T06:32:42;23.80;69.40
64718;DHT22;62506;46.070;14.492;2023-10-13T06:35:08;23.80;69.50
64718;DHT22;62506;46.070;14.492;2023-10-13T06:37:44;23.80;69.60
64718;DHT22;62506;46.070;14.492;2023-10-13T06:40:10;23.80;69.80
64718;DHT22;62506;46.070;14.492;2023-10-13T06:42:51;23.80;69.80
64718;DHT22;62506;46.070;14.492;2023-10-13T06:45:18;23.70;70.00
64718;DHT22;62506;46.070;14.492;2023-10-13T06:47:44;23.80;70.10
64718;DHT22;62506;46.070;14.492;2023-10-13T06:50:10;23.80;70.10
64718;DHT22;62506;46.070;14.492;2023-10-13T06:52:44;23.80;70.20
64718;DHT22;62506;46.070;14.492;2023-10-13T06:55:10;23.80;70.10
64718;DHT22;62506;46.070;14.492;2023-10-13T06:57:42;23.80;69.80
64718;DHT22;62506;46.070;14.492;2023-10-13T07:00:10;23.80;68.50
64718;DHT22;62506;46.070;14.492;2023-10-13T07:02:44;23.80;69.00
64718;DHT22;62506;46.070;14.492;2023-10-13T07:05:11;23.80;69.50
64718;DHT22;62506;46.070;14.492;2023-10-13T07:07:39;23.80;69.60
64718;DHT22;62506;46.070;14.492;2023-10-13T07:10:08;23.80;69.70
64718;DHT22;62506;46.070;14.492;2023-10-13T07:12:34;23.80;69.70
64718;DHT22;62506;46.070;14.492;2023-10-13T07:14:59;23.80;69.60
64718;DHT22;62506;46.070;14.492;2023-10-13T07:17:36;23.90;69.80
64718;DHT22;62506;46.070;14.492;2023-10-13T07:20:05;23.90;69.70
64718;DHT22;62506;46.070;14.492;2023-10-13T07:22:41;23.80;69.60
64718;DHT22;62506;46.070;14.492;2023-10-13T07:25:11;23.90;69.60
64718;DHT22;62506;46.070;14.492;2023-10-13T07:27:48;23.90;69.10
64718;DHT22;62506;46.070;14.492;2023-10-13T07:30:14;23.90;69.10
64718;DHT22;62506;46.070;14.492;2023-10-13T07:32:45;23.90;69.30
64718;DHT22;62506;46.070;14.492;2023-10-13T07:35:14;23.90;69.10
64718;DHT22;62506;46.070;14.492;2023-10-13T07:37:41;23.90;69.10
64718;DHT22;62506;46.070;14.492;2023-10-13T07:40:08;23.90;69.10
64718;DHT22;62506;46.070;14.492;2023-10-13T07:42:47;23.90;69.10
64718;DHT22;62506;46.070;14.492;2023-10-13T07:45:13;23.90;69.10
64718;DHT22;62506;46.070;14.492;2023-10-13T07:47:39;23.90;69.30
64718;DHT22;62506;46.070;14.492;2023-10-13T07:50:05;23.90;69.00
64718;DHT22;62506;46.070;14.492;2023-10-13T07:52:32;23.90;68.80
64718;DHT22;62506;46.070;14.492;2023-10-13T07:55:23;23.90;68.70
64718;DHT22;62506;46.070;14.492;2023-10-13T07:57:49;23.90;68.60
64718;DHT22;62506;46.070;14.492;2023-10-13T08:00:21;23.90;68.60
64718;DHT22;62506;46.070;14.492;2023-10-13T08:03:19;23.90;68.40
64718;DHT22;62506;46.070;14.492;2023-10-13T08:05:57;23.90;69.00
64718;DHT22;62506;46.070;14.492;2023-10-13T08:08:44;23.90;68.30
64718;DHT22;62506;46.070;14.492;2023-10-13T08:11:14;23.90;68.30
64718;DHT22;62506;46.070;14.492;2023-10-13T08:13:49;23.90;68.30
64718;DHT22;62506;46.070;14.492;2023-10-13T08:16:24;23.90;68.30
64718;DHT22;62506;46.070;14.492;2023-10-13T08:19:11;24.00;68.50
64718;DHT22;62506;46.070;14.492;2023-10-13T08:21:38;23.90;68.30
64718;DHT22;62506;46.070;14.492;2023-10-13T08:24:04;23.90;68.30
64718;DHT22;62506;46.070;14.492;2023-10-13T08:26:33;23.90;68.30
64718;DHT22;62506;46.070;14.492;2023-10-13T08:29:01;24.00;68.50
64718;DHT22;62506;46.070;14.492;2023-10-13T08:31:46;24.00;68.60
64718;DHT22;62506;46.070;14.492;2023-10-13T08:34:31;24.00;68.50
64718;DHT22;62506;46.070;14.492;2023-10-13T08:37:04;24.00;68.40
64718;DHT22;62506;46.070;14.492;2023-10-13T08:39:45;24.00;68.50
64718;DHT22;62506;46.070;14.492;2023-10-13T08:47:55;24.00;68.60
64718;DHT22;62506;46.070;14.492;2023-10-13T08:50:49;24.00;68.60
64718;DHT22;62506;46.070;14.492;2023-10-13T08:55:57;24.00;68.60
64718;DHT22;62506;46.070;14.492;2023-10-13T08:58:49;24.00;68.60
64718;DHT22;62506;46.070;14.492;2023-10-13T09:01:24;24.00;69.60
64718;DHT22;62506;46.070;14.492;2023-10-13T09:04:12;24.00;68.60
64718;DHT22;62506;46.070;14.492;2023-10-13T09:06:47;24.00;68.70
64718;DHT22;62506;46.070;14.492;2023-10-13T09:09:26;24.00;68.70
64718;DHT22;62506;46.070;14.492;2023-10-13T09:11:55;24.00;68.80
64718;DHT22;62506;46.070;14.492;2023-10-13T09:14:37;24.00;68.80
64718;DHT22;62506;46.070;14.492;2023-10-13T09:17:05;24.00;68.70
64718;DHT22;62506;46.070;14.492;2023-10-13T09:19:52;24.00;68.70
64718;DHT22;62506;46.070;14.492;2023-10-13T09:22:27;24.00;68.80
64718;DHT22;62506;46.070;14.492;2023-10-13T09:24:57;24.00;68.90
64718;DHT22;62506;46.070;14.492;2023-10-13T09:27:26;24.00;68.80
64718;DHT22;62506;46.070;14.492;2023-10-13T09:29:56;24.00;68.70
64718;DHT22;62506;46.070;14.492;2023-10-13T09:32:21;24.00;68.70
64718;DHT22;62506;46.070;14.492;2023-10-13T09:34:47;24.00;68.60
64718;DHT22;62506;46.070;14.492;2023-10-13T09:37:13;24.00;68.80
64718;DHT22;62506;46.070;14.492;2023-10-13T09:39:46;24.00;68.80
64718;DHT22;62506;46.070;14.492;2023-10-13T09:42:13;24.00;68.80
64718;DHT22;62506;46.070;14.492;2023-10-13T09:44:41;24.00;68.80
64718;DHT22;62506;46.070;14.492;2023-10-13T09:47:09;24.00;68.80
64718;DHT22;62506;46.070;14.492;2023-10-13T09:49:45;24.00;68.80
64718;DHT22;62506;46.070;14.492;2023-10-13T09:52:16;24.00;68.80
64718;DHT22;62506;46.070;14.492;2023-10-13T09:55:07;24.00;68.80
64718;DHT22;62506;46.070;14.492;2023-10-13T09:57:37;24.00;68.90
64718;DHT22;62506;46.070;14.492;2023-10-13T10:02:54;24.00;68.90
64718;DHT22;62506;46.070;14.492;2023-10-13T10:05:24;24.00;68.80
64718;DHT22;62506;46.070;14.492;2023-10-13T10:07:56;24.00;68.90
64718;DHT22;62506;46.070;14.492;2023-10-13T10:11:14;24.00;69.00
64718;DHT22;62506;46.070;14.492;2023-10-13T10:13:21;24.00;69.00
64718;DHT22;62506;46.070;14.492;2023-10-13T10:15:51;24.00;69.00
64718;DHT22;62506;46.070;14.492;2023-10-13T10:18:19;24.00;69.10
64718;DHT22;62506;46.070;14.492;2023-10-13T10:20:48;24.00;69.10
64718;DHT22;62506;46.070;14.492;2023-10-13T10:23:24;24.00;69.10
64718;DHT22;62506;46.070;14.492;2023-10-13T10:25:49;24.00;69.20
64718;DHT22;62506;46.070;14.492;2023-10-13T10:28:17;24.00;69.20
64718;DHT22;62506;46.070;14.492;2023-10-13T10:30:44;24.00;69.10
64718;DHT22;62506;46.070;14.492;2023-10-13T10:33:10;24.00;69.20
64718;DHT22;62506;46.070;14.492;2023-10-13T10:35:41;24.00;69.20
64718;DHT22;62506;46.070;14.492;2023-10-13T10:40:49;24.00;69.20
64718;DHT22;62506;46.070;14.492;2023-10-13T10:43:43;24.00;69.30
64718;DHT22;62506;46.070;14.492;2023-10-13T10:46:09;24.00;69.30
64718;DHT22;62506;46.070;14.492;2023-10-13T10:48:36;24.00;69.30
64718;DHT22;62506;46.070;14.492;2023-10-13T10:51:03;24.00;69.30
64718;DHT22;62506;46.070;14.492;2023-10-13T10:53:33;24.00;69.40
64718;DHT22;62506;46.070;14.492;2023-10-13T10:56:06;24.00;69.50
64718;DHT22;62506;46.070;14.492;2023-10-13T10:58:41;23.90;69.50
64718;DHT22;62506;46.070;14.492;2023-10-13T11:01:10;23.90;69.70
64718;DHT22;62506;46.070;14.492;2023-10-13T11:03:37;23.90;69.80
64718;DHT22;62506;46.070;14.492;2023-10-13T11:06:03;23.90;69.80
64718;DHT22;62506;46.070;14.492;2023-10-13T11:08:30;23.90;69.70
64718;DHT22;62506;46.070;14.492;2023-10-13T11:11:00;23.90;69.80
64718;DHT22;62506;46.070;14.492;2023-10-13T11:13:27;23.90;69.80
64718;DHT22;62506;46.070;14.492;2023-10-13T11:15:56;23.90;66.10
64718;DHT22;62506;46.070;14.492;2023-10-13T11:18:31;23.80;63.60
64718;DHT22;62506;46.070;14.492;2023-10-13T11:21:03;23.80;63.80
64718;DHT22;62506;46.070;14.492;2023-10-13T11:23:33;23.80;63.00
64718;DHT22;62506;46.070;14.492;2023-10-13T11:26:02;23.80;63.30
64718;DHT22;62506;46.070;14.492;2023-10-13T11:28:29;23.80;63.30
64718;DHT22;62506;46.070;14.492;2023-10-13T11:30:56;23.80;62.50
64718;DHT22;62506;46.070;14.492;2023-10-13T11:33:25;23.80;62.40
64718;DHT22;62506;46.070;14.492;2023-10-13T11:35:57;23.80;61.30
64718;DHT22;62506;46.070;14.492;2023-10-13T11:38:24;23.80;62.50
64718;DHT22;62506;46.070;14.492;2023-10-13T11:40:53;23.80;63.10
64718;DHT22;62506;46.070;14.492;2023-10-13T11:43:30;23.80;62.70
64718;DHT22;62506;46.070;14.492;2023-10-13T11:46:00;23.80;62.90
64718;DHT22;62506;46.070;14.492;2023-10-13T11:48:35;23.80;63.20
64718;DHT22;62506;46.070;14.492;2023-10-13T11:51:04;23.80;63.70
64718;DHT22;62506;46.070;14.492;2023-10-13T11:53:33;23.80;64.00
64718;DHT22;62506;46.070;14.492;2023-10-13T11:55:59;23.90;64.30
64718;DHT22;62506;46.070;14.492;2023-10-13T11:58:25;23.90;64.60
64718;DHT22;62506;46.070;14.492;2023-10-13T12:00:50;23.90;64.70
64718;DHT22;62506;46.070;14.492;2023-10-13T12:03:16;23.80;62.60
64718;DHT22;62506;46.070;14.492;2023-10-13T12:06:00;23.90;62.60
64718;DHT22;62506;46.070;14.492;2023-10-13T12:08:45;23.90;63.20
64718;DHT22;62506;46.070;14.492;2023-10-13T12:11:18;23.90;62.20
64718;DHT22;62506;46.070;14.492;2023-10-13T12:13:56;23.90;61.60
64718;DHT22;62506;46.070;14.492;2023-10-13T12:16:21;23.80;60.80
64718;DHT22;62506;46.070;14.492;2023-10-13T12:18:47;23.80;61.50
64718;DHT22;62506;46.070;14.492;2023-10-13T12:21:19;23.80;62.60
64718;DHT22;62506;46.070;14.492;2023-10-13T12:23:46;23.80;63.10
64718;DHT22;62506;46.070;14.492;2023-10-13T12:26:12;23.80;62.40
64718;DHT22;62506;46.070;14.492;2023-10-13T12:29:00;23.80;62.30
64718;DHT22;62506;46.070;14.492;2023-10-13T12:31:32;23.80;62.10
64718;DHT22;62506;46.070;14.492;2023-10-13T12:33:58;23.80;63.40
64718;DHT22;62506;46.070;14.492;2023-10-13T12:36:32;23.80;63.30
64718;DHT22;62506;46.070;14.492;2023-10-13T12:39:06;23.90;63.60
64718;DHT22;62506;46.070;14.492;2023-10-13T12:41:32;23.80;63.10
64718;DHT22;62506;46.070;14.492;2023-10-13T12:44:16;23.80;62.60
64718;DHT22;62506;46.070;14.492;2023-10-13T12:47:01;23.80;62.60
64718;DHT22;62506;46.070;14.492;2023-10-13T12:49:45;23.80;62.20
64718;DHT22;62506;46.070;14.492;2023-10-13T12:52:11;23.80;62.10
64718;DHT22;62506;46.070;14.492;2023-10-13T12:54:50;23.80;62.10
64718;DHT22;62506;46.070;14.492;2023-10-13T12:57:22;23.80;62.80
64718;DHT22;62506;46.070;14.492;2023-10-13T12:59:50;23.80;63.20
64718;DHT22;62506;46.070;14.492;2023-10-13T13:02:22;23.90;62.10
64718;DHT22;62506;46.070;14.492;2023-10-13T13:04:50;23.90;61.30
64718;DHT22;62506;46.070;14.492;2023-10-13T13:07:37;23.80;61.00
64718;DHT22;62506;46.070;14.492;2023-10-13T13:10:10;23.80;61.30
64718;DHT22;62506;46.070;14.492;2023-10-13T13:12:37;23.80;60.90
64718;DHT22;62506;46.070;14.492;2023-10-13T13:15:03;23.90;61.00
64718;DHT22;62506;46.070;14.492;2023-10-13T13:17:34;23.80;60.80
64718;DHT22;62506;46.070;14.492;2023-10-13T13:20:00;23.80;60.90
64718;DHT22;62506;46.070;14.492;2023-10-13T13:22:33;23.80;60.70
64718;DHT22;62506;46.070;14.492;2023-10-13T13:24:58;23.80;60.70
64718;DHT22;62506;46.070;14.492;2023-10-13T13:27:26;23.80;61.00
64718;DHT22;62506;46.070;14.492;2023-10-13T13:29:52;23.80;60.70
64718;DHT22;62506;46.070;14.492;2023-10-13T13:32:18;23.80;60.00
64718;DHT22;62506;46.070;14.492;2023-10-13T13:34:50;23.90;60.50
64718;DHT22;62506;46.070;14.492;2023-10-13T13:37:30;23.90;60.50
64718;DHT22;62506;46.070;14.492;2023-10-13T13:39:56;23.80;59.90
64718;DHT22;62506;46.070;14.492;2023-10-13T13:42:21;23.90;59.60
64718;DHT22;62506;46.070;14.492;2023-10-13T13:44:47;23.80;59.40
64718;DHT22;62506;46.070;14.492;2023-10-13T13:47:13;23.80;59.50
64718;DHT22;62506;46.070;14.492;2023-10-13T13:49:42;23.80;59.50
64718;DHT22;62506;46.070;14.492;2023-10-13T13:52:16;23.80;59.40
64718;DHT22;62506;46.070;14.492;2023-10-13T13:54:46;23.80;59.50
64718;DHT22;62506;46.070;14.492;2023-10-13T13:57:12;23.70;59.50
64718;DHT22;62506;46.070;14.492;2023-10-13T13:59:39;23.70;59.50
64718;DHT22;62506;46.070;14.492;2023-10-13T14:02:04;23.70;59.60
64718;DHT22;62506;46.070;14.492;2023-10-13T14:04:47;23.80;59.90
64718;DHT22;62506;46.070;14.492;2023-10-13T14:07:17;23.80;60.20
64718;DHT22;62506;46.070;14.492;2023-10-13T14:09:45;23.70;59.70
64718;DHT22;62506;46.070;14.492;2023-10-13T14:12:11;23.70;60.80
64718;DHT22;62506;46.070;14.492;2023-10-13T14:14:55;23.70;61.20
64718;DHT22;62506;46.070;14.492;2023-10-13T14:17:21;23.70;61.70
64718;DHT22;62506;46.070;14.492;2023-10-13T14:19:57;23.70;61.30
64718;DHT22;62506;46.070;14.492;2023-10-13T14:22:23;23.70;60.40
64718;DHT22;62506;46.070;14.492;2023-10-13T14:24:50;23.60;60.00
64718;DHT22;62506;46.070;14.492;2023-10-13T14:27:20;23.60;61.00
64718;DHT22;62506;46.070;14.492;2023-10-13T14:29:48;23.60;61.60
64718;DHT22;62506;46.070;14.492;2023-10-13T14:32:18;23.60;62.10
64718;DHT22;62506;46.070;14.492;2023-10-13T14:34:44;23.60;62.70
64718;DHT22;62506;46.070;14.492;2023-10-13T14:37:11;23.60;63.00
64718;DHT22;62506;46.070;14.492;2023-10-13T14:39:39;23.60;63.20
64718;DHT22;62506;46.070;14.492;2023-10-13T14:42:05;23.60;63.50
64718;DHT22;62506;46.070;14.492;2023-10-13T14:44:34;23.60;63.50
64718;DHT22;62506;46.070;14.492;2023-10-13T14:47:00;23.60;63.50
64718;DHT22;62506;46.070;14.492;2023-10-13T14:49:26;23.60;63.70
64718;DHT22;62506;46.070;14.492;2023-10-13T14:51:52;23.60;63.70
64718;DHT22;62506;46.070;14.492;2023-10-13T14:54:20;23.70;64.20
64718;DHT22;62506;46.070;14.492;2023-10-13T14:57:06;23.70;64.10
64718;DHT22;62506;46.070;14.492;2023-10-13T14:59:31;23.70;64.50
64718;DHT22;62506;46.070;14.492;2023-10-13T15:02:03;23.70;64.50
64718;DHT22;62506;46.070;14.492;2023-10-13T15:04:29;23.70;64.70
64718;DHT22;62506;46.070;14.492;2023-10-13T15:06:58;23.70;64.60
64718;DHT22;62506;46.070;14.492;2023-10-13T15:09:24;23.70;64.70
64718;DHT22;62506;46.070;14.492;2023-10-13T15:11:52;23.70;64.70
64718;DHT22;62506;46.070;14.492;2023-10-13T15:20:28;23.80;64.90
64718;DHT22;62506;46.070;14.492;2023-10-13T18:55:18;24.20;67.30
64718;DHT22;62506;46.070;14.492;2023-10-13T18:57:44;24.20;67.20
64718;DHT22;62506;46.070;14.492;2023-10-13T19:00:10;24.10;67.30
64718;DHT22;62506;46.070;14.492;2023-10-13T19:02:41;24.20;67.00
64718;DHT22;62506;46.070;14.492;2023-10-13T19:05:07;24.20;67.30
64718;DHT22;62506;46.070;14.492;2023-10-13T19:07:37;24.20;67.40
64718;DHT22;62506;46.070;14.492;2023-10-13T19:10:18;24.20;67.80
64718;DHT22;62506;46.070;14.492;2023-10-13T19:12:45;24.20;67.00
64718;DHT22;62506;46.070;14.492;2023-10-13T19:15:20;24.20;66.90
64718;DHT22;62506;46.070;14.492;2023-10-13T19:17:50;24.20;66.70
64718;DHT22;62506;46.070;14.492;2023-10-13T19:20:16;24.20;67.60
64718;DHT22;62506;46.070;14.492;2023-10-13T19:22:42;24.20;67.20
64718;DHT22;62506;46.070;14.492;2023-10-13T19:25:10;24.20;67.30
64718;DHT22;62506;46.070;14.492;2023-10-13T19:27:36;24.10;67.30
64718;DHT22;62506;46.070;14.492;2023-10-13T19:30:02;24.10;67.60
64718;DHT22;62506;46.070;14.492;2023-10-13T19:32:32;24.10;67.60
64718;DHT22;62506;46.070;14.492;2023-10-13T19:34:57;24.10;67.80
64718;DHT22;62506;46.070;14.492;2023-10-13T19:37:23;24.10;67.70
64718;DHT22;62506;46.070;14.492;2023-10-13T19:39:50;24.00;67.80